createdAt,value
2018-11-21T00:00:59.086Z,44.03
2018-11-21T00:03:29.675Z,46.43
2018-11-21T00:05:59.866Z,44.10
2018-11-21T00:08:33.863Z,44.30
2018-11-21T00:11:14.764Z,41.37
2018-11-21T00:13:44.442Z,40.43
2018-11-21T00:16:15.459Z,42.30
2018-11-21T00:18:45.958Z,45.43
2018-11-21T00:21:17.144Z,45.37
2018-11-21T00:23:47.700Z,42.63
2018-11-21T00:26:18.965Z,42.37
2018-11-21T00:28:49.731Z,44.43
2018-11-21T00:31:21.980Z,40.37
2018-11-21T00:33:51.628Z,42.00
2018-11-21T00:36:24.450Z,42.43
2018-11-21T00:38:54.516Z,42.53
2018-11-21T00:41:24.500Z,42.87
2018-11-21T00:43:54.556Z,43.23
2018-11-21T00:46:24.676Z,42.37
2018-11-21T00:48:57.228Z,45.63
2018-11-21T00:51:27.245Z,46.00
2018-11-21T00:53:56.917Z,41.77
2018-11-21T00:56:29.140Z,48.97
2018-11-21T00:59:20.637Z,46.23
2018-11-21T01:01:52.204Z,44.00
2018-11-21T01:04:21.872Z,43.30
2018-11-21T01:06:52.266Z,42.37
2018-11-21T01:09:22.780Z,40.03
2018-11-21T01:11:52.480Z,44.10
2018-11-21T01:14:24.304Z,43.13
2018-11-21T01:16:54.353Z,43.57
2018-11-21T01:19:24.514Z,43.57
2018-11-21T01:21:54.182Z,41.93
2018-11-21T01:24:25.094Z,42.67
2018-11-21T01:26:58.968Z,44.83
2018-11-21T01:29:29.408Z,43.47
2018-11-21T01:32:00.780Z,40.17
2018-11-21T01:34:34.294Z,42.27
2018-11-21T01:37:06.482Z,44.27
2018-11-21T01:39:47.745Z,44.20
2018-11-21T01:42:17.440Z,44.10
2018-11-21T01:44:48.928Z,38.80
2018-11-21T01:47:23.810Z,41.87
2018-11-21T01:49:54.586Z,42.33
2018-11-21T01:52:25.452Z,43.27
2018-11-21T01:54:55.519Z,41.97
2018-11-21T01:57:31.809Z,43.03
2018-11-21T02:00:03.493Z,47.87
2018-11-21T02:02:38.997Z,45.83
2018-11-21T02:05:09.471Z,45.90
2018-11-21T02:07:39.469Z,47.00
2018-11-21T02:10:10.726Z,45.13
2018-11-21T02:12:41.753Z,47.60
2018-11-21T02:15:13.274Z,41.27
2018-11-21T02:17:44.126Z,46.27
2018-11-21T02:20:15.382Z,44.23
2018-11-21T02:22:49.295Z,44.60
2018-11-21T02:25:19.217Z,45.57
2018-11-21T02:28:05.484Z,42.20
2018-11-21T02:30:36.764Z,45.60
2018-11-21T02:33:06.944Z,46.87
2018-11-21T02:35:36.664Z,44.10
2018-11-21T02:38:08.783Z,45.60
2018-11-21T02:40:46.822Z,43.40
2018-11-21T02:43:18.506Z,40.70
2018-11-21T02:45:49.591Z,41.67
2018-11-21T02:48:19.579Z,44.47
2018-11-21T02:50:52.556Z,45.07
2018-11-21T02:53:22.298Z,42.50
2018-11-21T02:55:52.753Z,44.47
2018-11-21T02:58:22.663Z,46.37
2018-11-21T03:00:52.770Z,43.77
2018-11-21T03:03:22.718Z,45.60
2018-11-21T03:05:53.315Z,48.87
2018-11-21T03:08:24.156Z,43.73
2018-11-21T03:10:55.850Z,45.50
2018-11-21T03:13:28.423Z,44.97
2018-11-21T03:15:55.700Z,43.50
2018-11-21T03:18:25.851Z,46.40
2018-11-21T03:20:56.080Z,43.37
2018-11-21T03:23:29.078Z,42.57
2018-11-21T03:25:58.760Z,43.73
2018-11-21T03:28:29.535Z,47.67
2018-11-21T03:31:04.315Z,47.70
2018-11-21T03:33:35.000Z,45.67
2018-11-21T03:36:07.375Z,44.10
2018-11-21T03:38:37.045Z,47.43
2018-11-21T03:41:07.605Z,45.77
2018-11-21T03:43:38.118Z,46.00
2018-11-21T03:46:08.199Z,44.27
2018-11-21T03:48:38.643Z,45.93
2018-11-21T03:51:12.998Z,44.43
2018-11-21T03:53:44.045Z,44.47
2018-11-21T03:56:16.694Z,44.50
2018-11-21T03:58:48.631Z,46.60
2018-11-21T04:01:19.665Z,46.37
2018-11-21T04:03:52.049Z,46.03
2018-11-21T04:06:23.432Z,47.97
2018-11-21T04:08:54.775Z,50.33
2018-11-21T04:11:26.727Z,43.80
2018-11-21T04:13:57.291Z,44.90
2018-11-21T04:16:28.547Z,44.50
2018-11-21T04:19:00.133Z,46.20
2018-11-21T04:21:33.410Z,45.50
2018-11-21T04:24:05.463Z,44.27
2018-11-21T04:26:37.738Z,46.17
2018-11-21T04:29:10.080Z,49.50
2018-11-21T04:31:40.887Z,42.50
2018-11-21T04:34:10.949Z,44.23
2018-11-21T04:36:45.432Z,46.73
2018-11-21T04:39:17.445Z,44.73
2018-11-21T04:41:48.324Z,47.40
2018-11-21T04:44:18.629Z,47.80
2018-11-21T04:46:49.277Z,48.67
2018-11-21T04:49:20.147Z,49.43
2018-11-21T04:51:50.361Z,49.23
2018-11-21T04:54:21.315Z,50.23
2018-11-21T04:56:51.501Z,48.77
2018-11-21T04:59:21.204Z,46.80
2018-11-21T05:01:53.480Z,46.60
2018-11-21T05:04:28.108Z,44.20
2018-11-21T05:06:57.774Z,48.70
2018-11-21T05:09:32.751Z,48.90
2018-11-21T05:12:02.836Z,51.13
2018-11-21T05:14:34.455Z,50.90
2018-11-21T05:17:05.029Z,50.50
2018-11-21T05:19:35.641Z,54.90
2018-11-21T05:22:05.675Z,48.07
2018-11-21T05:24:38.286Z,49.17
2018-11-21T05:27:14.094Z,47.17
2018-11-21T05:29:44.080Z,46.27
2018-11-21T05:32:15.702Z,48.77
2018-11-21T05:34:45.792Z,47.97
2018-11-21T05:37:15.440Z,50.47
2018-11-21T05:39:47.218Z,49.80
2018-11-21T05:42:18.072Z,44.33
2018-11-21T05:44:50.923Z,53.23
2018-11-21T05:47:22.399Z,49.73
2018-11-21T05:49:56.007Z,44.60
2018-11-21T05:52:27.611Z,48.50
2018-11-21T05:55:00.388Z,47.03
2018-11-21T05:57:30.845Z,50.00
2018-11-21T06:00:00.628Z,49.90
2018-11-21T06:02:31.795Z,51.90
2018-11-21T06:05:04.374Z,47.97
2018-11-21T06:07:35.270Z,46.10
2018-11-21T06:10:08.521Z,55.17
2018-11-21T06:12:44.656Z,47.63
2018-11-21T06:15:17.198Z,41.77
2018-11-21T06:17:52.321Z,47.50
2018-11-21T06:20:24.496Z,45.10
2018-11-21T06:22:57.630Z,47.00
2018-11-21T06:25:27.939Z,45.63
2018-11-21T06:27:57.602Z,43.57
2018-11-21T06:30:27.373Z,46.87
2018-11-21T06:32:57.028Z,41.00
2018-11-21T06:35:27.877Z,44.03
2018-11-21T06:37:57.652Z,46.33
2018-11-21T06:40:28.520Z,45.67
2018-11-21T06:42:59.746Z,42.13
2018-11-21T06:45:31.198Z,43.93
2018-11-21T06:48:05.066Z,41.53
2018-11-21T06:50:38.542Z,36.63
2018-11-21T06:53:10.162Z,42.30
2018-11-21T06:55:40.147Z,40.47
2018-11-21T06:58:11.620Z,39.07
2018-11-21T07:00:42.241Z,37.53
2018-11-21T07:03:14.740Z,45.60
2018-11-21T07:05:49.452Z,37.27
2018-11-21T07:08:19.945Z,39.93
2018-11-21T07:10:51.502Z,39.10
2018-11-21T07:13:21.168Z,41.13
2018-11-21T07:15:54.603Z,37.23
2018-11-21T07:18:25.096Z,38.33
2018-11-21T07:20:54.779Z,36.53
2018-11-21T07:23:24.454Z,38.90
2018-11-21T07:25:58.329Z,37.53
2018-11-21T07:28:33.500Z,35.33
2018-11-21T07:31:04.343Z,38.30
2018-11-21T07:33:39.291Z,37.07
2018-11-21T07:36:11.353Z,38.50
2018-11-21T07:38:46.562Z,37.70
2018-11-21T07:41:20.916Z,39.43
2018-11-21T07:43:52.355Z,36.40
2018-11-21T07:46:22.663Z,35.00
2018-11-21T07:48:54.264Z,36.37
2018-11-21T07:51:28.214Z,35.37
2018-11-21T07:53:58.610Z,35.43
2018-11-21T07:57:22.330Z,34.47
2018-11-21T08:01:07.866Z,36.13
2018-11-21T08:03:43.880Z,33.67
2018-11-21T08:06:29.162Z,34.90
2018-11-21T08:09:17.319Z,34.80
2018-11-21T08:12:06.458Z,38.60
2018-11-21T08:15:02.371Z,37.70
2018-11-21T08:17:44.159Z,36.07
2018-11-21T08:20:31.550Z,36.47
2018-11-21T08:23:18.913Z,33.43
2018-11-21T08:26:30.641Z,36.60
2018-11-21T08:29:02.453Z,34.63
2018-11-21T08:49:55.520Z,28.63
2018-11-21T08:52:29.919Z,26.97
2018-11-21T08:58:11.467Z,31.73
2018-11-21T09:01:00.104Z,33.63
2018-11-21T09:03:48.854Z,27.30
2018-11-21T09:06:25.008Z,29.77
2018-11-21T09:09:02.442Z,26.77
2018-11-21T09:11:32.093Z,28.90
2018-11-21T09:14:01.789Z,30.60
2018-11-21T09:16:43.752Z,29.83
2018-11-21T09:19:21.664Z,26.27
2018-11-21T09:21:56.796Z,27.20
2018-11-21T09:24:44.920Z,25.07
2018-11-21T09:27:22.501Z,26.03
2018-11-21T09:29:56.996Z,26.93
2018-11-21T09:32:28.368Z,36.40
2018-11-21T09:35:05.807Z,26.77
2018-11-21T09:37:42.975Z,22.97
2018-11-21T09:40:20.879Z,21.93
2018-11-21T09:42:54.349Z,23.63
2018-11-21T09:45:28.084Z,23.87
2018-11-21T09:48:03.155Z,19.73
2018-11-21T09:50:35.406Z,19.30
2018-11-21T09:53:16.750Z,23.60
2018-11-21T09:55:48.299Z,21.77
2018-11-21T09:58:17.306Z,25.43
2018-11-21T10:01:23.175Z,28.30
2018-11-21T10:03:53.282Z,21.43
2018-11-21T10:06:28.593Z,25.03
2018-11-21T10:09:04.827Z,26.67
2018-11-21T10:11:35.701Z,29.43
2018-11-21T10:14:05.822Z,24.67
2018-11-21T10:16:35.486Z,26.03
2018-11-21T10:19:05.826Z,26.70
2018-11-21T10:21:40.207Z,26.07
2018-11-21T10:24:13.698Z,23.03
2018-11-21T10:26:43.957Z,23.43
2018-11-21T10:29:24.664Z,22.90
2018-11-21T10:32:17.326Z,22.30
2018-11-21T10:35:00.120Z,21.97
2018-11-21T10:37:29.772Z,19.23
2018-11-21T10:39:59.462Z,21.13
2018-11-21T10:42:35.634Z,24.07
2018-11-21T10:45:06.665Z,17.50
2018-11-21T10:48:02.450Z,15.80
2018-11-21T10:50:32.572Z,15.93
2018-11-21T10:53:05.099Z,17.73
2018-11-21T10:55:35.445Z,19.47
2018-11-21T10:58:06.741Z,18.27
2018-11-21T11:00:53.924Z,15.67
2018-11-21T11:03:30.964Z,16.80
2018-11-21T11:06:28.190Z,14.13
2018-11-21T11:09:13.923Z,16.97
2018-11-21T11:12:00.913Z,16.93
2018-11-21T11:14:58.352Z,17.53
2018-11-21T11:17:49.615Z,14.97
2018-11-21T11:20:36.566Z,13.50
2018-11-21T11:23:17.489Z,15.20
2018-11-21T11:26:08.319Z,15.17
2018-11-21T11:29:06.187Z,13.73
2018-11-21T11:31:58.426Z,14.90
2018-11-21T11:34:54.647Z,15.53
2018-11-21T11:37:53.590Z,15.83
2018-11-21T11:41:01.367Z,16.70
2018-11-21T11:44:13.088Z,15.97
2018-11-21T11:47:05.047Z,15.17
2018-11-21T11:49:56.337Z,16.70
2018-11-21T11:52:45.908Z,16.30
2018-11-21T11:55:53.759Z,14.97
2018-11-21T11:58:29.416Z,17.37
2018-11-21T12:01:20.749Z,15.17
2018-11-21T12:04:33.173Z,15.37
2018-11-21T12:07:48.304Z,15.00
2018-11-21T12:10:56.439Z,15.30
2018-11-21T12:13:45.804Z,16.10
2018-11-21T12:16:43.721Z,17.03
2018-11-21T12:19:30.730Z,17.50
2018-11-21T12:22:35.439Z,15.37
2018-11-21T12:25:25.702Z,18.90
2018-11-21T12:28:10.341Z,17.93
2018-11-21T12:30:59.621Z,20.00
2018-11-21T12:34:04.925Z,18.53
2018-11-21T12:36:57.089Z,19.27
2018-11-21T12:39:41.858Z,16.83
2018-11-21T12:42:36.160Z,17.30
2018-11-21T12:45:20.654Z,17.50
2018-11-21T12:48:15.923Z,18.50
2018-11-21T12:51:03.652Z,16.77
2018-11-21T12:54:10.634Z,18.67
2018-11-21T12:57:00.463Z,13.83
2018-11-21T12:59:50.246Z,16.30
2018-11-21T13:02:53.365Z,16.37
2018-11-21T13:05:46.015Z,16.90
2018-11-21T13:08:54.424Z,15.53
2018-11-21T13:11:43.221Z,15.73
2018-11-21T13:14:31.850Z,16.37
2018-11-21T13:17:23.244Z,15.70
2018-11-21T13:20:05.527Z,16.13
2018-11-21T13:23:15.313Z,15.43
2018-11-21T13:26:13.317Z,16.87
2018-11-21T13:29:00.222Z,15.60
2018-11-21T13:32:11.408Z,15.13
2018-11-21T13:35:19.671Z,14.00
2018-11-21T13:38:15.416Z,14.77
2018-11-21T13:41:05.965Z,14.97
2018-11-21T13:43:57.119Z,16.83
2018-11-21T13:46:48.232Z,11.43
2018-11-21T13:49:43.698Z,12.07
2018-11-21T13:52:31.238Z,13.90
2018-11-21T13:55:03.646Z,12.77
2018-11-21T13:57:35.340Z,13.53
2018-11-21T14:00:11.398Z,13.80
2018-11-21T14:02:52.701Z,12.93
2018-11-21T14:05:34.798Z,14.30
2018-11-21T14:08:07.512Z,16.63
2018-11-21T14:10:37.350Z,15.77
2018-11-21T14:13:08.844Z,14.57
2018-11-21T14:15:41.859Z,13.77
2018-11-21T14:18:21.931Z,13.70
2018-11-21T14:20:52.045Z,14.43
2018-11-21T14:23:26.668Z,14.40
2018-11-21T14:25:57.160Z,14.17
2018-11-21T14:28:33.896Z,13.83
2018-11-21T14:31:10.615Z,13.83
2018-11-21T14:33:46.949Z,20.57
2018-11-21T14:36:20.219Z,16.10
2018-11-21T14:39:06.587Z,12.87
2018-11-21T14:41:38.320Z,15.23
2018-11-21T14:44:11.921Z,15.83
2018-11-21T14:46:43.691Z,16.30
2018-11-21T14:49:13.578Z,16.77
